Accueil
METAR-TAF:

METAR-TAF

Aéroports :

Le Luc, France

latitude: 43-23N, longitude: 006-23E, altitude: 80 m

Observation

Le bulletin a été fait il y a 48 minutes, à 15:00 UTC
Vent 9 kt de ouest/sud-ouest, variant entre sud/sud-ouest et ouest
Température 33°C
Humidité 39%
Pression 1013 hPa
Visibilité 10 km ou plus
Nuages épars à une hauteur de 7600 ft
Nuages épars à une hauteur de 15000 ft
Nuages fragmentés à une hauteur de 21000 ft

METAR: LFMC 211500Z 24009KT 210V270 9999 SCT076 SCT150 BKN210 33/17 Q1013

Heure: 17:48 (15:48 UTC)


TAF: absent

Observations et prévisions météorologiques de plus de 4000 aéroports (messages METAR et TAF).

Les stations disponibles sont représentées par des disques jaunes et rouges sur la carte.

Passer la souris dessus pour voir le nom de la station.

Cliquer dessus pour voir les observations et prévisions météorologiques.

Pour changer de carte: cliquez sur les boutons verts avec une croix noire pour zoomer, sur le bouton vert avec un tiret pour effectuer un zoom arrière, ou sur les flèches vertes pour les cartes adjacentes.


METAR-TAF: